sensor_id;sensor_type;location;lat;lon;timestamp;temperature;humidity
27747;DHT22;15138;51.012;4.692;2023-06-22T13:58:21;20.60;99.90
27747;DHT22;15138;51.012;4.692;2023-06-22T14:00:50;20.90;99.90
27747;DHT22;15138;51.012;4.692;2023-06-22T14:03:22;20.80;99.90
27747;DHT22;15138;51.012;4.692;2023-06-22T14:05:50;20.70;99.90
27747;DHT22;15138;51.012;4.692;2023-06-22T14:08:21;20.80;99.90
27747;DHT22;15138;51.012;4.692;2023-06-22T14:10:53;20.80;99.90
27747;DHT22;15138;51.012;4.692;2023-06-22T14:13:21;20.80;99.90
27747;DHT22;15138;51.012;4.692;2023-06-22T14:15:49;20.80;99.90
27747;DHT22;15138;51.012;4.692;2023-06-22T14:18:19;20.80;99.90
27747;DHT22;15138;51.012;4.692;2023-06-22T14:20:50;20.80;99.90
27747;DHT22;15138;51.012;4.692;2023-06-22T14:23:18;20.90;99.90
27747;DHT22;15138;51.012;4.692;2023-06-22T14:25:46;20.80;99.90
27747;DHT22;15138;51.012;4.692;2023-06-22T14:28:15;20.80;99.90
27747;DHT22;15138;51.012;4.692;2023-06-22T14:30:44;20.80;99.90
27747;DHT22;15138;51.012;4.692;2023-06-22T14:33:12;20.80;99.90
27747;DHT22;15138;51.012;4.692;2023-06-22T14:35:40;20.80;1.00
27747;DHT22;15138;51.012;4.692;2023-06-22T14:38:10;20.80;1.00
27747;DHT22;15138;51.012;4.692;2023-06-22T14:40:38;20.80;1.00
27747;DHT22;15138;51.012;4.692;2023-06-22T14:43:26;20.70;1.00
27747;DHT22;15138;51.012;4.692;2023-06-22T14:45:55;20.80;1.00
27747;DHT22;15138;51.012;4.692;2023-06-22T14:48:23;20.90;1.00
27747;DHT22;15138;51.012;4.692;2023-06-22T14:50:51;20.80;2.10
27747;DHT22;15138;51.012;4.692;2023-06-22T14:53:22;20.80;1.00
27747;DHT22;15138;51.012;4.692;2023-06-22T14:55:50;20.80;1.00
27747;DHT22;15138;51.012;4.692;2023-06-22T14:58:20;20.90;1.00
27747;DHT22;15138;51.012;4.692;2023-06-22T15:00:48;20.90;66.50
27747;DHT22;15138;51.012;4.692;2023-06-22T15:03:16;20.90;99.90
27747;DHT22;15138;51.012;4.692;2023-06-22T15:05:49;20.80;99.90
27747;DHT22;15138;51.012;4.692;2023-06-22T15:08:17;20.70;99.90
27747;DHT22;15138;51.012;4.692;2023-06-22T15:10:46;20.80;1.00
27747;DHT22;15138;51.012;4.692;2023-06-22T15:13:15;20.80;99.90
27747;DHT22;15138;51.012;4.692;2023-06-22T15:15:44;20.80;1.00
27747;DHT22;15138;51.012;4.692;2023-06-22T15:18:13;20.80;99.90
27747;DHT22;15138;51.012;4.692;2023-06-22T15:20:41;20.80;99.90
27747;DHT22;15138;51.012;4.692;2023-06-22T15:23:11;20.80;99.90
27747;DHT22;15138;51.012;4.692;2023-06-22T15:25:39;20.80;99.90
27747;DHT22;15138;51.012;4.692;2023-06-22T15:28:10;20.80;99.90
27747;DHT22;15138;51.012;4.692;2023-06-22T15:30:38;20.80;91.90
27747;DHT22;15138;51.012;4.692;2023-06-22T15:33:06;20.80;1.00
27747;DHT22;15138;51.012;4.692;2023-06-22T15:35:34;20.80;99.90
27747;DHT22;15138;51.012;4.692;2023-06-22T15:38:03;20.90;99.90
27747;DHT22;15138;51.012;4.692;2023-06-22T15:40:31;20.90;99.90
27747;DHT22;15138;51.012;4.692;2023-06-22T15:42:59;20.90;99.90
27747;DHT22;15138;51.012;4.692;2023-06-22T15:45:29;21.00;99.90
27747;DHT22;15138;51.012;4.692;2023-06-22T15:47:57;21.00;99.90
27747;DHT22;15138;51.012;4.692;2023-06-22T15:50:25;21.00;99.90
27747;DHT22;15138;51.012;4.692;2023-06-22T15:52:54;21.00;99.90
27747;DHT22;15138;51.012;4.692;2023-06-22T15:55:22;21.00;99.90
27747;DHT22;15138;51.012;4.692;2023-06-22T15:57:50;21.10;17.30
27747;DHT22;15138;51.012;4.692;2023-06-22T16:00:19;21.20;43.70
27747;DHT22;15138;51.012;4.692;2023-06-22T16:02:49;21.20;80.20
27747;DHT22;15138;51.012;4.692;2023-06-22T16:05:17;21.10;99.90
27747;DHT22;15138;51.012;4.692;2023-06-22T16:07:46;21.10;1.00
27747;DHT22;15138;51.012;4.692;2023-06-22T16:10:14;21.00;1.00
27747;DHT22;15138;51.012;4.692;2023-06-22T16:12:43;21.10;1.00
27747;DHT22;15138;51.012;4.692;2023-06-22T16:15:12;21.10;1.00
27747;DHT22;15138;51.012;4.692;2023-06-22T16:17:42;21.00;1.00
27747;DHT22;15138;51.012;4.692;2023-06-22T16:20:12;21.00;1.00
27747;DHT22;15138;51.012;4.692;2023-06-22T16:22:44;21.00;23.10
27747;DHT22;15138;51.012;4.692;2023-06-22T16:25:13;21.00;11.10
27747;DHT22;15138;51.012;4.692;2023-06-22T16:27:42;21.00;99.90
27747;DHT22;15138;51.012;4.692;2023-06-22T16:30:11;21.00;1.00
27747;DHT22;15138;51.012;4.692;2023-06-22T16:32:49;21.00;1.00
27747;DHT22;15138;51.012;4.692;2023-06-22T16:35:19;21.00;1.00
27747;DHT22;15138;51.012;4.692;2023-06-22T16:37:48;20.90;1.00
27747;DHT22;15138;51.012;4.692;2023-06-22T16:40:16;21.00;99.90
27747;DHT22;15138;51.012;4.692;2023-06-22T16:42:47;21.00;99.90
27747;DHT22;15138;51.012;4.692;2023-06-22T16:45:19;21.00;99.90
27747;DHT22;15138;51.012;4.692;2023-06-22T16:47:49;20.90;99.90
27747;DHT22;15138;51.012;4.692;2023-06-22T16:52:48;20.90;1.00
27747;DHT22;15138;51.012;4.692;2023-06-22T16:55:16;20.90;99.90
27747;DHT22;15138;51.012;4.692;2023-06-22T16:57:44;20.90;99.90
27747;DHT22;15138;51.012;4.692;2023-06-22T17:00:13;20.90;99.90
27747;DHT22;15138;51.012;4.692;2023-06-22T17:02:46;20.90;99.90
27747;DHT22;15138;51.012;4.692;2023-06-22T17:05:15;21.00;99.90
27747;DHT22;15138;51.012;4.692;2023-06-22T17:07:48;21.00;99.90
27747;DHT22;15138;51.012;4.692;2023-06-22T17:10:20;21.00;99.90
27747;DHT22;15138;51.012;4.692;2023-06-22T17:12:49;21.00;92.40
27747;DHT22;15138;51.012;4.692;2023-06-22T17:15:21;21.10;30.50
27747;DHT22;15138;51.012;4.692;2023-06-22T17:17:50;21.10;99.90
27747;DHT22;15138;51.012;4.692;2023-06-22T17:20:20;21.00;99.90
27747;DHT22;15138;51.012;4.692;2023-06-22T17:22:50;21.00;99.90
27747;DHT22;15138;51.012;4.692;2023-06-22T17:25:19;21.00;99.90
27747;DHT22;15138;51.012;4.692;2023-06-22T17:27:49;21.00;99.90
27747;DHT22;15138;51.012;4.692;2023-06-22T17:30:17;21.00;99.90
27747;DHT22;15138;51.012;4.692;2023-06-22T17:32:48;21.00;99.90
27747;DHT22;15138;51.012;4.692;2023-06-22T17:35:16;20.90;99.90
27747;DHT22;15138;51.012;4.692;2023-06-22T17:37:50;20.90;99.90
27747;DHT22;15138;51.012;4.692;2023-06-22T17:40:20;20.90;1.00
27747;DHT22;15138;51.012;4.692;2023-06-22T17:42:50;21.00;42.90
27747;DHT22;15138;51.012;4.692;2023-06-22T17:45:20;21.00;1.00
27747;DHT22;15138;51.012;4.692;2023-06-22T17:47:49;21.00;1.00
27747;DHT22;15138;51.012;4.692;2023-06-22T17:50:21;21.10;1.00
27747;DHT22;15138;51.012;4.692;2023-06-22T17:52:52;21.00;1.00
27747;DHT22;15138;51.012;4.692;2023-06-22T17:55:21;21.00;1.00
27747;DHT22;15138;51.012;4.692;2023-06-22T17:57:54;21.00;1.00
27747;DHT22;15138;51.012;4.692;2023-06-22T18:00:23;21.10;87.20
27747;DHT22;15138;51.012;4.692;2023-06-22T18:02:51;21.10;99.90
27747;DHT22;15138;51.012;4.692;2023-06-22T18:07:59;21.00;1.00
27747;DHT22;15138;51.012;4.692;2023-06-22T18:10:28;21.00;71.00
27747;DHT22;15138;51.012;4.692;2023-06-22T18:12:58;21.00;99.90
27747;DHT22;15138;51.012;4.692;2023-06-22T18:15:27;21.00;1.00
27747;DHT22;15138;51.012;4.692;2023-06-22T18:17:58;21.00;1.00
27747;DHT22;15138;51.012;4.692;2023-06-22T18:20:27;20.90;1.00
27747;DHT22;15138;51.012;4.692;2023-06-22T18:25:31;21.10;99.90
27747;DHT22;15138;51.012;4.692;2023-06-22T18:28:00;21.00;99.90
27747;DHT22;15138;51.012;4.692;2023-06-22T18:30:29;21.20;1.00
27747;DHT22;15138;51.012;4.692;2023-06-22T18:35:26;21.10;1.00
27747;DHT22;15138;51.012;4.692;2023-06-22T18:37:56;21.20;99.90
27747;DHT22;15138;51.012;4.692;2023-06-22T18:40:26;21.10;99.90
27747;DHT22;15138;51.012;4.692;2023-06-22T18:42:59;21.20;99.90
27747;DHT22;15138;51.012;4.692;2023-06-22T18:45:29;21.00;99.90
27747;DHT22;15138;51.012;4.692;2023-06-22T18:48:04;21.10;27.00
27747;DHT22;15138;51.012;4.692;2023-06-22T18:50:38;20.90;1.00
27747;DHT22;15138;51.012;4.692;2023-06-22T18:53:11;20.90;99.90
27747;DHT22;15138;51.012;4.692;2023-06-22T18:55:44;20.90;99.90
27747;DHT22;15138;51.012;4.692;2023-06-22T18:58:13;20.90;1.00
27747;DHT22;15138;51.012;4.692;2023-06-22T19:00:42;21.00;99.90
27747;DHT22;15138;51.012;4.692;2023-06-22T19:08:19;20.90;99.90
27747;DHT22;15138;51.012;4.692;2023-06-22T19:10:50;20.80;99.90
27747;DHT22;15138;51.012;4.692;2023-06-22T19:15:52;20.80;99.90
27747;DHT22;15138;51.012;4.692;2023-06-22T19:18:21;20.90;1.00
27747;DHT22;15138;51.012;4.692;2023-06-22T19:20:52;20.70;99.90
27747;DHT22;15138;51.012;4.692;2023-06-22T19:23:24;20.80;16.50
27747;DHT22;15138;51.012;4.692;2023-06-22T19:25:55;20.90;99.90
27747;DHT22;15138;51.012;4.692;2023-06-22T19:28:25;20.90;99.90
27747;DHT22;15138;51.012;4.692;2023-06-22T19:30:56;20.70;1.00
27747;DHT22;15138;51.012;4.692;2023-06-22T19:33:25;20.60;1.00
27747;DHT22;15138;51.012;4.692;2023-06-22T19:38:24;20.70;99.90
27747;DHT22;15138;51.012;4.692;2023-06-22T21:21:43;20.50;1.00
27747;DHT22;15138;51.012;4.692;2023-06-22T21:24:11;20.30;1.00
27747;DHT22;15138;51.012;4.692;2023-06-22T21:26:40;20.30;75.10
27747;DHT22;15138;51.012;4.692;2023-06-22T21:29:09;20.10;1.00
27747;DHT22;15138;51.012;4.692;2023-06-22T21:31:37;20.10;1.00
27747;DHT22;15138;51.012;4.692;2023-06-22T21:34:06;20.20;1.00
27747;DHT22;15138;51.012;4.692;2023-06-22T21:36:34;20.20;1.00
27747;DHT22;15138;51.012;4.692;2023-06-22T21:39:02;20.10;1.00
27747;DHT22;15138;51.012;4.692;2023-06-22T21:41:31;20.10;1.00
27747;DHT22;15138;51.012;4.692;2023-06-22T21:43:59;20.00;99.90
27747;DHT22;15138;51.012;4.692;2023-06-22T21:46:28;20.00;1.00
27747;DHT22;15138;51.012;4.692;2023-06-22T21:48:56;20.00;67.50
27747;DHT22;15138;51.012;4.692;2023-06-22T21:51:25;20.00;35.40
27747;DHT22;15138;51.012;4.692;2023-06-22T21:53:53;19.90;99.90
27747;DHT22;15138;51.012;4.692;2023-06-22T21:56:21;19.90;90.60
27747;DHT22;15138;51.012;4.692;2023-06-22T21:58:49;19.90;1.00
27747;DHT22;15138;51.012;4.692;2023-06-22T22:13:44;19.70;99.90
27747;DHT22;15138;51.012;4.692;2023-06-22T22:16:12;19.60;99.90
27747;DHT22;15138;51.012;4.692;2023-06-22T22:18:40;19.50;99.90
27747;DHT22;15138;51.012;4.692;2023-06-22T22:21:10;19.50;99.90
27747;DHT22;15138;51.012;4.692;2023-06-22T22:23:38;19.50;99.90
27747;DHT22;15138;51.012;4.692;2023-06-22T22:26:06;19.40;1.00
27747;DHT22;15138;51.012;4.692;2023-06-22T22:28:35;19.40;1.00
27747;DHT22;15138;51.012;4.692;2023-06-22T22:31:03;19.30;47.80
27747;DHT22;15138;51.012;4.692;2023-06-22T22:33:31;19.30;1.00
27747;DHT22;15138;51.012;4.692;2023-06-22T22:36:02;19.30;99.90
27747;DHT22;15138;51.012;4.692;2023-06-22T22:38:33;19.20;27.00
27747;DHT22;15138;51.012;4.692;2023-06-22T22:48:29;19.10;1.00
27747;DHT22;15138;51.012;4.692;2023-06-22T22:50:58;19.10;60.30
27747;DHT22;15138;51.012;4.692;2023-06-22T22:53:26;19.00;1.00
27747;DHT22;15138;51.012;4.692;2023-06-22T22:55:55;19.00;99.90
27747;DHT22;15138;51.012;4.692;2023-06-22T22:58:24;19.00;99.90
27747;DHT22;15138;51.012;4.692;2023-06-22T23:00:52;19.00;99.90
27747;DHT22;15138;51.012;4.692;2023-06-22T23:03:20;19.00;99.90
27747;DHT22;15138;51.012;4.692;2023-06-22T23:05:49;18.90;1.00
27747;DHT22;15138;51.012;4.692;2023-06-22T23:08:18;18.90;1.00
27747;DHT22;15138;51.012;4.692;2023-06-22T23:13:18;18.90;1.00
27747;DHT22;15138;51.012;4.692;2023-06-22T23:15:46;18.90;99.90
27747;DHT22;15138;51.012;4.692;2023-06-22T23:18:14;18.70;1.00
27747;DHT22;15138;51.012;4.692;2023-06-22T23:20:43;18.70;99.90
27747;DHT22;15138;51.012;4.692;2023-06-22T23:23:11;18.90;1.00
27747;DHT22;15138;51.012;4.692;2023-06-22T23:28:07;18.80;1.00
27747;DHT22;15138;51.012;4.692;2023-06-22T23:30:37;18.80;1.00
27747;DHT22;15138;51.012;4.692;2023-06-22T23:33:05;18.80;1.00
27747;DHT22;15138;51.012;4.692;2023-06-22T23:38:04;18.60;99.90
27747;DHT22;15138;51.012;4.692;2023-06-22T23:40:35;18.60;99.90
27747;DHT22;15138;51.012;4.692;2023-06-22T23:43:06;18.60;99.90
27747;DHT22;15138;51.012;4.692;2023-06-22T23:50:33;18.50;99.90
27747;DHT22;15138;51.012;4.692;2023-06-22T23:53:01;18.50;37.40
27747;DHT22;15138;51.012;4.692;2023-06-22T23:55:30;18.40;1.00
27747;DHT22;15138;51.012;4.692;2023-06-22T23:57:58;18.40;1.00
